sensor_id;sensor_type;location;lat;lon;timestamp;temperature;humidity
60909;DHT22;46780;48.128;-1.704;2022-08-23T00:00:36;21.70;99.90
60909;DHT22;46780;48.128;-1.704;2022-08-23T00:03:04;21.70;99.90
60909;DHT22;46780;48.128;-1.704;2022-08-23T00:05:31;21.70;99.90
60909;DHT22;46780;48.128;-1.704;2022-08-23T00:07:58;21.70;99.90
60909;DHT22;46780;48.128;-1.704;2022-08-23T00:10:24;21.60;99.90
60909;DHT22;46780;48.128;-1.704;2022-08-23T00:12:51;21.70;99.90
60909;DHT22;46780;48.128;-1.704;2022-08-23T00:15:19;21.70;99.90
60909;DHT22;46780;48.128;-1.704;2022-08-23T00:17:46;21.70;99.90
60909;DHT22;46780;48.128;-1.704;2022-08-23T00:20:17;21.70;99.90
60909;DHT22;46780;48.128;-1.704;2022-08-23T00:22:44;21.70;99.90
60909;DHT22;46780;48.128;-1.704;2022-08-23T00:25:12;21.70;99.90
60909;DHT22;46780;48.128;-1.704;2022-08-23T00:27:39;21.60;99.90
60909;DHT22;46780;48.128;-1.704;2022-08-23T00:30:08;21.60;99.90
60909;DHT22;46780;48.128;-1.704;2022-08-23T00:32:37;21.60;99.90
60909;DHT22;46780;48.128;-1.704;2022-08-23T00:35:05;21.70;99.90
60909;DHT22;46780;48.128;-1.704;2022-08-23T00:37:33;21.60;99.90
60909;DHT22;46780;48.128;-1.704;2022-08-23T00:40:00;21.60;99.90
60909;DHT22;46780;48.128;-1.704;2022-08-23T00:42:31;21.70;99.90
60909;DHT22;46780;48.128;-1.704;2022-08-23T00:45:00;21.60;99.90
60909;DHT22;46780;48.128;-1.704;2022-08-23T00:47:28;21.70;99.90
60909;DHT22;46780;48.128;-1.704;2022-08-23T00:49:58;21.60;99.90
60909;DHT22;46780;48.128;-1.704;2022-08-23T00:52:30;21.60;99.90
60909;DHT22;46780;48.128;-1.704;2022-08-23T00:54:59;21.60;99.90
60909;DHT22;46780;48.128;-1.704;2022-08-23T00:57:27;21.60;99.90
60909;DHT22;46780;48.128;-1.704;2022-08-23T00:59:54;21.60;99.90
60909;DHT22;46780;48.128;-1.704;2022-08-23T01:02:20;21.60;99.90
60909;DHT22;46780;48.128;-1.704;2022-08-23T01:04:51;21.60;99.90
60909;DHT22;46780;48.128;-1.704;2022-08-23T01:07:27;21.60;99.90
60909;DHT22;46780;48.128;-1.704;2022-08-23T01:10:02;21.60;99.90
60909;DHT22;46780;48.128;-1.704;2022-08-23T01:12:33;21.60;99.90
60909;DHT22;46780;48.128;-1.704;2022-08-23T01:15:04;21.60;99.90
60909;DHT22;46780;48.128;-1.704;2022-08-23T01:17:35;21.60;99.90
60909;DHT22;46780;48.128;-1.704;2022-08-23T01:20:07;21.60;99.90
60909;DHT22;46780;48.128;-1.704;2022-08-23T01:22:39;21.60;99.90
60909;DHT22;46780;48.128;-1.704;2022-08-23T01:25:09;21.60;99.90
60909;DHT22;46780;48.128;-1.704;2022-08-23T01:27:37;21.60;99.90
60909;DHT22;46780;48.128;-1.704;2022-08-23T01:30:06;21.60;99.90
60909;DHT22;46780;48.128;-1.704;2022-08-23T01:32:36;21.60;99.90
60909;DHT22;46780;48.128;-1.704;2022-08-23T01:35:05;21.60;99.90
60909;DHT22;46780;48.128;-1.704;2022-08-23T01:37:32;21.60;99.90
60909;DHT22;46780;48.128;-1.704;2022-08-23T01:39:59;21.50;99.90
60909;DHT22;46780;48.128;-1.704;2022-08-23T01:42:27;21.50;99.90
60909;DHT22;46780;48.128;-1.704;2022-08-23T01:44:53;21.50;99.90
60909;DHT22;46780;48.128;-1.704;2022-08-23T01:47:20;21.50;99.90
60909;DHT22;46780;48.128;-1.704;2022-08-23T01:49:46;21.50;99.90
60909;DHT22;46780;48.128;-1.704;2022-08-23T01:52:13;21.40;99.90
60909;DHT22;46780;48.128;-1.704;2022-08-23T01:54:39;21.40;99.90
60909;DHT22;46780;48.128;-1.704;2022-08-23T01:57:06;21.40;99.90
60909;DHT22;46780;48.128;-1.704;2022-08-23T01:59:34;21.40;99.90
60909;DHT22;46780;48.128;-1.704;2022-08-23T02:02:01;21.40;99.90
60909;DHT22;46780;48.128;-1.704;2022-08-23T02:04:27;21.40;99.90
60909;DHT22;46780;48.128;-1.704;2022-08-23T02:06:54;21.40;99.90
60909;DHT22;46780;48.128;-1.704;2022-08-23T02:09:21;21.40;99.90
60909;DHT22;46780;48.128;-1.704;2022-08-23T02:11:48;21.40;99.90
60909;DHT22;46780;48.128;-1.704;2022-08-23T02:14:17;21.40;99.90
60909;DHT22;46780;48.128;-1.704;2022-08-23T02:16:47;21.40;99.90
60909;DHT22;46780;48.128;-1.704;2022-08-23T02:19:14;21.30;99.90
60909;DHT22;46780;48.128;-1.704;2022-08-23T02:21:42;21.30;99.90
60909;DHT22;46780;48.128;-1.704;2022-08-23T02:24:10;21.30;99.90
60909;DHT22;46780;48.128;-1.704;2022-08-23T02:26:40;21.30;99.90
60909;DHT22;46780;48.128;-1.704;2022-08-23T02:29:07;21.30;99.90
60909;DHT22;46780;48.128;-1.704;2022-08-23T02:31:34;21.30;99.90
60909;DHT22;46780;48.128;-1.704;2022-08-23T02:34:02;21.30;99.90
60909;DHT22;46780;48.128;-1.704;2022-08-23T02:36:29;21.30;99.90
60909;DHT22;46780;48.128;-1.704;2022-08-23T02:38:55;21.20;99.90
60909;DHT22;46780;48.128;-1.704;2022-08-23T02:41:22;21.20;99.90
60909;DHT22;46780;48.128;-1.704;2022-08-23T02:43:50;21.20;99.90
60909;DHT22;46780;48.128;-1.704;2022-08-23T02:46:17;21.10;99.90
60909;DHT22;46780;48.128;-1.704;2022-08-23T02:48:43;21.10;99.90
60909;DHT22;46780;48.128;-1.704;2022-08-23T02:51:12;21.10;99.90
60909;DHT22;46780;48.128;-1.704;2022-08-23T02:53:38;21.10;99.90
60909;DHT22;46780;48.128;-1.704;2022-08-23T02:56:05;21.10;99.90
60909;DHT22;46780;48.128;-1.704;2022-08-23T02:58:32;21.10;99.90
60909;DHT22;46780;48.128;-1.704;2022-08-23T03:00:59;21.10;99.90
60909;DHT22;46780;48.128;-1.704;2022-08-23T03:03:25;21.00;99.90
60909;DHT22;46780;48.128;-1.704;2022-08-23T03:05:52;21.00;99.90
60909;DHT22;46780;48.128;-1.704;2022-08-23T03:08:20;21.00;99.90
60909;DHT22;46780;48.128;-1.704;2022-08-23T03:10:49;21.00;99.90
60909;DHT22;46780;48.128;-1.704;2022-08-23T03:13:16;21.00;99.90
60909;DHT22;46780;48.128;-1.704;2022-08-23T03:15:42;21.00;99.90
60909;DHT22;46780;48.128;-1.704;2022-08-23T03:18:09;21.00;99.90
60909;DHT22;46780;48.128;-1.704;2022-08-23T03:20:35;21.00;99.90
60909;DHT22;46780;48.128;-1.704;2022-08-23T03:23:02;21.00;99.90
60909;DHT22;46780;48.128;-1.704;2022-08-23T03:25:30;21.00;99.90
60909;DHT22;46780;48.128;-1.704;2022-08-23T03:27:56;21.00;99.90
60909;DHT22;46780;48.128;-1.704;2022-08-23T03:30:22;21.00;99.90
60909;DHT22;46780;48.128;-1.704;2022-08-23T03:32:49;21.00;99.90
60909;DHT22;46780;48.128;-1.704;2022-08-23T03:35:16;21.00;99.90
60909;DHT22;46780;48.128;-1.704;2022-08-23T03:37:42;21.00;99.90
60909;DHT22;46780;48.128;-1.704;2022-08-23T03:40:09;21.00;99.90
60909;DHT22;46780;48.128;-1.704;2022-08-23T03:42:37;21.00;99.90
60909;DHT22;46780;48.128;-1.704;2022-08-23T03:45:04;21.00;99.90
60909;DHT22;46780;48.128;-1.704;2022-08-23T03:47:31;21.00;99.90
60909;DHT22;46780;48.128;-1.704;2022-08-23T03:49:57;21.00;99.90
60909;DHT22;46780;48.128;-1.704;2022-08-23T03:52:24;21.00;99.90
60909;DHT22;46780;48.128;-1.704;2022-08-23T03:54:50;21.00;99.90
60909;DHT22;46780;48.128;-1.704;2022-08-23T03:57:17;21.00;99.90
60909;DHT22;46780;48.128;-1.704;2022-08-23T03:59:45;21.00;99.90
60909;DHT22;46780;48.128;-1.704;2022-08-23T04:02:11;21.00;99.90
60909;DHT22;46780;48.128;-1.704;2022-08-23T04:04:37;21.00;99.90
60909;DHT22;46780;48.128;-1.704;2022-08-23T04:07:04;21.10;99.90
60909;DHT22;46780;48.128;-1.704;2022-08-23T04:09:30;21.10;99.90
60909;DHT22;46780;48.128;-1.704;2022-08-23T04:11:57;21.10;99.90
60909;DHT22;46780;48.128;-1.704;2022-08-23T04:14:24;21.10;99.90
60909;DHT22;46780;48.128;-1.704;2022-08-23T04:16:52;21.10;99.90
60909;DHT22;46780;48.128;-1.704;2022-08-23T04:19:19;21.10;99.90
60909;DHT22;46780;48.128;-1.704;2022-08-23T04:21:48;21.10;99.90
60909;DHT22;46780;48.128;-1.704;2022-08-23T04:24:16;21.10;99.90
60909;DHT22;46780;48.128;-1.704;2022-08-23T04:26:42;21.10;99.90
60909;DHT22;46780;48.128;-1.704;2022-08-23T04:29:09;21.10;99.90
60909;DHT22;46780;48.128;-1.704;2022-08-23T04:31:35;21.10;99.90
60909;DHT22;46780;48.128;-1.704;2022-08-23T04:34:03;21.10;99.90
60909;DHT22;46780;48.128;-1.704;2022-08-23T04:36:33;21.10;99.90
60909;DHT22;46780;48.128;-1.704;2022-08-23T04:39:00;21.20;99.90
60909;DHT22;46780;48.128;-1.704;2022-08-23T04:41:26;21.20;99.90
60909;DHT22;46780;48.128;-1.704;2022-08-23T04:43:53;21.20;99.90
60909;DHT22;46780;48.128;-1.704;2022-08-23T04:46:19;21.20;99.90
60909;DHT22;46780;48.128;-1.704;2022-08-23T04:48:46;21.20;99.90
60909;DHT22;46780;48.128;-1.704;2022-08-23T04:51:14;21.20;99.90
60909;DHT22;46780;48.128;-1.704;2022-08-23T04:53:41;21.20;99.90
60909;DHT22;46780;48.128;-1.704;2022-08-23T04:56:08;21.20;99.90
60909;DHT22;46780;48.128;-1.704;2022-08-23T04:58:36;21.20;99.90
60909;DHT22;46780;48.128;-1.704;2022-08-23T05:01:04;21.20;99.90
60909;DHT22;46780;48.128;-1.704;2022-08-23T05:03:31;21.20;99.90
60909;DHT22;46780;48.128;-1.704;2022-08-23T05:05:59;21.20;99.90
60909;DHT22;46780;48.128;-1.704;2022-08-23T05:08:27;21.20;99.90
60909;DHT22;46780;48.128;-1.704;2022-08-23T05:10:53;21.20;99.90
60909;DHT22;46780;48.128;-1.704;2022-08-23T05:13:20;21.20;99.90
60909;DHT22;46780;48.128;-1.704;2022-08-23T05:15:49;21.20;99.90
60909;DHT22;46780;48.128;-1.704;2022-08-23T05:18:16;21.10;99.90
60909;DHT22;46780;48.128;-1.704;2022-08-23T05:20:42;21.10;99.90
60909;DHT22;46780;48.128;-1.704;2022-08-23T05:23:09;21.20;99.90
60909;DHT22;46780;48.128;-1.704;2022-08-23T05:25:36;21.20;99.90
60909;DHT22;46780;48.128;-1.704;2022-08-23T05:28:03;21.20;99.90
60909;DHT22;46780;48.128;-1.704;2022-08-23T05:30:29;21.20;99.90
60909;DHT22;46780;48.128;-1.704;2022-08-23T05:32:56;21.20;99.90
60909;DHT22;46780;48.128;-1.704;2022-08-23T05:35:23;21.20;99.90
60909;DHT22;46780;48.128;-1.704;2022-08-23T05:37:50;21.10;99.90
60909;DHT22;46780;48.128;-1.704;2022-08-23T05:40:16;21.10;99.90
60909;DHT22;46780;48.128;-1.704;2022-08-23T05:42:44;21.20;99.90
60909;DHT22;46780;48.128;-1.704;2022-08-23T05:45:11;21.10;99.90
60909;DHT22;46780;48.128;-1.704;2022-08-23T05:47:38;21.10;99.90
60909;DHT22;46780;48.128;-1.704;2022-08-23T05:50:06;21.10;99.90
60909;DHT22;46780;48.128;-1.704;2022-08-23T05:52:32;21.10;99.90
60909;DHT22;46780;48.128;-1.704;2022-08-23T05:54:59;21.20;99.90
60909;DHT22;46780;48.128;-1.704;2022-08-23T05:57:26;21.10;99.90
60909;DHT22;46780;48.128;-1.704;2022-08-23T05:59:54;21.10;99.90
60909;DHT22;46780;48.128;-1.704;2022-08-23T06:02:21;21.20;99.90
60909;DHT22;46780;48.128;-1.704;2022-08-23T06:04:48;21.20;99.90
60909;DHT22;46780;48.128;-1.704;2022-08-23T06:07:14;21.20;99.90
60909;DHT22;46780;48.128;-1.704;2022-08-23T06:09:41;21.20;99.90
60909;DHT22;46780;48.128;-1.704;2022-08-23T06:12:08;21.20;99.90
60909;DHT22;46780;48.128;-1.704;2022-08-23T06:14:34;21.20;99.90
60909;DHT22;46780;48.128;-1.704;2022-08-23T06:17:02;21.20;99.90
60909;DHT22;46780;48.128;-1.704;2022-08-23T06:19:28;21.20;99.90
60909;DHT22;46780;48.128;-1.704;2022-08-23T06:21:55;21.30;99.90
60909;DHT22;46780;48.128;-1.704;2022-08-23T06:24:21;21.20;99.90
60909;DHT22;46780;48.128;-1.704;2022-08-23T06:26:48;21.30;99.90
60909;DHT22;46780;48.128;-1.704;2022-08-23T06:29:17;21.30;99.90
60909;DHT22;46780;48.128;-1.704;2022-08-23T06:31:46;21.30;99.90
60909;DHT22;46780;48.128;-1.704;2022-08-23T06:34:17;21.30;99.90
60909;DHT22;46780;48.128;-1.704;2022-08-23T06:36:45;21.30;99.90
60909;DHT22;46780;48.128;-1.704;2022-08-23T06:39:13;21.30;99.90
60909;DHT22;46780;48.128;-1.704;2022-08-23T06:41:40;21.30;99.90
60909;DHT22;46780;48.128;-1.704;2022-08-23T06:44:06;21.30;99.90
60909;DHT22;46780;48.128;-1.704;2022-08-23T06:46:33;21.30;99.90
60909;DHT22;46780;48.128;-1.704;2022-08-23T06:49:00;21.30;99.90
60909;DHT22;46780;48.128;-1.704;2022-08-23T06:51:31;21.30;99.90
60909;DHT22;46780;48.128;-1.704;2022-08-23T06:54:00;21.30;99.90
60909;DHT22;46780;48.128;-1.704;2022-08-23T06:56:27;21.30;99.90
60909;DHT22;46780;48.128;-1.704;2022-08-23T06:58:54;21.30;99.90
60909;DHT22;46780;48.128;-1.704;2022-08-23T07:01:23;21.30;99.90
60909;DHT22;46780;48.128;-1.704;2022-08-23T07:03:52;21.30;99.90
60909;DHT22;46780;48.128;-1.704;2022-08-23T07:06:19;21.40;99.90
60909;DHT22;46780;48.128;-1.704;2022-08-23T07:08:47;21.40;99.90
60909;DHT22;46780;48.128;-1.704;2022-08-23T07:11:13;21.40;99.90
60909;DHT22;46780;48.128;-1.704;2022-08-23T07:13:39;21.50;99.90
60909;DHT22;46780;48.128;-1.704;2022-08-23T07:16:06;21.60;99.90
60909;DHT22;46780;48.128;-1.704;2022-08-23T07:18:32;21.60;99.80
60909;DHT22;46780;48.128;-1.704;2022-08-23T07:21:01;21.70;99.20
60909;DHT22;46780;48.128;-1.704;2022-08-23T07:23:29;21.70;99.10
60909;DHT22;46780;48.128;-1.704;2022-08-23T07:25:57;21.80;98.90
60909;DHT22;46780;48.128;-1.704;2022-08-23T07:28:23;21.80;98.80
60909;DHT22;46780;48.128;-1.704;2022-08-23T07:30:50;21.90;98.50
60909;DHT22;46780;48.128;-1.704;2022-08-23T07:33:17;22.00;97.90
60909;DHT22;46780;48.128;-1.704;2022-08-23T07:35:47;22.00;97.50
60909;DHT22;46780;48.128;-1.704;2022-08-23T07:38:14;22.10;97.30
60909;DHT22;46780;48.128;-1.704;2022-08-23T07:40:40;22.10;96.80
60909;DHT22;46780;48.128;-1.704;2022-08-23T07:43:08;22.10;96.70
60909;DHT22;46780;48.128;-1.704;2022-08-23T07:45:36;22.20;96.90
60909;DHT22;46780;48.128;-1.704;2022-08-23T07:48:03;22.20;96.60
60909;DHT22;46780;48.128;-1.704;2022-08-23T07:50:30;22.20;96.30
60909;DHT22;46780;48.128;-1.704;2022-08-23T07:52:56;22.30;96.30
60909;DHT22;46780;48.128;-1.704;2022-08-23T07:55:23;22.30;96.20
60909;DHT22;46780;48.128;-1.704;2022-08-23T07:57:50;22.30;96.30
60909;DHT22;46780;48.128;-1.704;2022-08-23T08:00:18;22.30;96.20
60909;DHT22;46780;48.128;-1.704;2022-08-23T08:02:44;22.30;96.10
60909;DHT22;46780;48.128;-1.704;2022-08-23T08:05:11;22.30;95.80
60909;DHT22;46780;48.128;-1.704;2022-08-23T08:07:37;22.30;95.80
60909;DHT22;46780;48.128;-1.704;2022-08-23T08:10:05;22.30;96.00
60909;DHT22;46780;48.128;-1.704;2022-08-23T08:12:31;22.30;96.30
60909;DHT22;46780;48.128;-1.704;2022-08-23T08:14:58;22.40;96.60
60909;DHT22;46780;48.128;-1.704;2022-08-23T08:17:26;22.40;96.40
60909;DHT22;46780;48.128;-1.704;2022-08-23T08:19:52;22.40;96.20
60909;DHT22;46780;48.128;-1.704;2022-08-23T08:22:19;22.50;96.10
60909;DHT22;46780;48.128;-1.704;2022-08-23T08:24:45;22.50;95.90
60909;DHT22;46780;48.128;-1.704;2022-08-23T08:27:12;22.60;95.50
60909;DHT22;46780;48.128;-1.704;2022-08-23T08:29:39;22.50;95.10
60909;DHT22;46780;48.128;-1.704;2022-08-23T08:32:05;22.60;94.90
60909;DHT22;46780;48.128;-1.704;2022-08-23T08:34:33;22.60;94.80
60909;DHT22;46780;48.128;-1.704;2022-08-23T08:37:00;22.60;94.70
60909;DHT22;46780;48.128;-1.704;2022-08-23T08:39:29;22.60;94.40
60909;DHT22;46780;48.128;-1.704;2022-08-23T08:42:07;22.60;94.40
60909;DHT22;46780;48.128;-1.704;2022-08-23T08:44:42;22.60;94.40
60909;DHT22;46780;48.128;-1.704;2022-08-23T08:47:13;22.70;94.30
60909;DHT22;46780;48.128;-1.704;2022-08-23T08:49:46;22.60;94.10
60909;DHT22;46780;48.128;-1.704;2022-08-23T08:52:16;22.70;94.10
60909;DHT22;46780;48.128;-1.704;2022-08-23T08:54:48;22.70;94.20
60909;DHT22;46780;48.128;-1.704;2022-08-23T08:57:18;22.70;94.30
60909;DHT22;46780;48.128;-1.704;2022-08-23T08:59:52;22.70;94.30
60909;DHT22;46780;48.128;-1.704;2022-08-23T09:02:21;22.70;94.10
60909;DHT22;46780;48.128;-1.704;2022-08-23T09:04:50;22.70;93.90
60909;DHT22;46780;48.128;-1.704;2022-08-23T09:07:22;22.70;93.70
60909;DHT22;46780;48.128;-1.704;2022-08-23T09:10:08;22.70;93.80
60909;DHT22;46780;48.128;-1.704;2022-08-23T09:12:46;22.70;94.00
60909;DHT22;46780;48.128;-1.704;2022-08-23T09:15:24;22.70;94.30
60909;DHT22;46780;48.128;-1.704;2022-08-23T09:18:03;22.70;94.60
60909;DHT22;46780;48.128;-1.704;2022-08-23T09:20:34;22.70;94.90
60909;DHT22;46780;48.128;-1.704;2022-08-23T09:23:07;22.80;95.00
60909;DHT22;46780;48.128;-1.704;2022-08-23T09:25:34;22.90;94.80
60909;DHT22;46780;48.128;-1.704;2022-08-23T09:28:01;23.10;94.90
60909;DHT22;46780;48.128;-1.704;2022-08-23T09:30:49;23.20;94.10
60909;DHT22;46780;48.128;-1.704;2022-08-23T09:33:17;23.20;93.20
60909;DHT22;46780;48.128;-1.704;2022-08-23T09:36:03;23.20;92.70
60909;DHT22;46780;48.128;-1.704;2022-08-23T09:38:30;23.30;92.60
60909;DHT22;46780;48.128;-1.704;2022-08-23T09:40:57;23.30;92.60
60909;DHT22;46780;48.128;-1.704;2022-08-23T09:43:25;23.40;92.20
60909;DHT22;46780;48.128;-1.704;2022-08-23T09:45:57;23.40;92.20
60909;DHT22;46780;48.128;-1.704;2022-08-23T09:48:35;23.40;92.30
60909;DHT22;46780;48.128;-1.704;2022-08-23T09:51:06;23.40;92.10
60909;DHT22;46780;48.128;-1.704;2022-08-23T09:53:33;23.30;91.90
60909;DHT22;46780;48.128;-1.704;2022-08-23T09:56:11;23.30;92.00
60909;DHT22;46780;48.128;-1.704;2022-08-23T09:58:40;23.20;92.10
60909;DHT22;46780;48.128;-1.704;2022-08-23T10:01:11;23.10;92.30
60909;DHT22;46780;48.128;-1.704;2022-08-23T10:03:40;23.10;92.70
60909;DHT22;46780;48.128;-1.704;2022-08-23T10:06:09;23.10;92.80
60909;DHT22;46780;48.128;-1.704;2022-08-23T10:08:38;23.20;92.80
60909;DHT22;46780;48.128;-1.704;2022-08-23T10:11:17;23.20;92.40
60909;DHT22;46780;48.128;-1.704;2022-08-23T10:13:44;23.20;92.10
60909;DHT22;46780;48.128;-1.704;2022-08-23T10:16:18;23.20;92.20
60909;DHT22;46780;48.128;-1.704;2022-08-23T10:18:52;23.30;92.30
60909;DHT22;46780;48.128;-1.704;2022-08-23T10:21:24;23.40;91.80
60909;DHT22;46780;48.128;-1.704;2022-08-23T10:24:26;23.40;91.50
60909;DHT22;46780;48.128;-1.704;2022-08-23T10:27:06;23.50;91.10
60909;DHT22;46780;48.128;-1.704;2022-08-23T10:29:36;23.50;91.20
60909;DHT22;46780;48.128;-1.704;2022-08-23T10:32:16;23.50;91.20
60909;DHT22;46780;48.128;-1.704;2022-08-23T10:34:57;23.60;91.00
60909;DHT22;46780;48.128;-1.704;2022-08-23T10:37:38;23.50;90.70
60909;DHT22;46780;48.128;-1.704;2022-08-23T10:40:13;23.60;90.70
60909;DHT22;46780;48.128;-1.704;2022-08-23T10:42:49;23.60;90.80
60909;DHT22;46780;48.128;-1.704;2022-08-23T10:45:24;23.70;90.70
60909;DHT22;46780;48.128;-1.704;2022-08-23T10:48:01;23.70;90.40
60909;DHT22;46780;48.128;-1.704;2022-08-23T10:50:38;23.80;90.50
60909;DHT22;46780;48.128;-1.704;2022-08-23T10:53:11;23.90;90.50
60909;DHT22;46780;48.128;-1.704;2022-08-23T10:55:41;24.00;90.20
60909;DHT22;46780;48.128;-1.704;2022-08-23T10:58:13;24.10;90.00
60909;DHT22;46780;48.128;-1.704;2022-08-23T11:00:41;24.20;89.50
60909;DHT22;46780;48.128;-1.704;2022-08-23T11:03:13;24.30;88.70
60909;DHT22;46780;48.128;-1.704;2022-08-23T11:05:42;24.30;87.80
60909;DHT22;46780;48.128;-1.704;2022-08-23T11:08:11;24.40;86.60
60909;DHT22;46780;48.128;-1.704;2022-08-23T11:10:55;24.40;86.30
60909;DHT22;46780;48.128;-1.704;2022-08-23T11:13:23;24.30;85.70
60909;DHT22;46780;48.128;-1.704;2022-08-23T11:15:58;24.30;85.50
60909;DHT22;46780;48.128;-1.704;2022-08-23T11:18:39;24.20;85.30
60909;DHT22;46780;48.128;-1.704;2022-08-23T11:21:09;24.30;85.70
60909;DHT22;46780;48.128;-1.704;2022-08-23T11:23:48;24.30;86.40
60909;DHT22;46780;48.128;-1.704;2022-08-23T11:29:29;24.50;86.60
60909;DHT22;46780;48.128;-1.704;2022-08-23T11:32:01;24.60;86.70
60909;DHT22;46780;48.128;-1.704;2022-08-23T11:34:32;24.60;86.30
60909;DHT22;46780;48.128;-1.704;2022-08-23T11:37:22;24.60;86.30
60909;DHT22;46780;48.128;-1.704;2022-08-23T11:40:05;24.70;86.20
60909;DHT22;46780;48.128;-1.704;2022-08-23T11:42:45;24.70;86.50
60909;DHT22;46780;48.128;-1.704;2022-08-23T11:45:27;24.80;86.30
60909;DHT22;46780;48.128;-1.704;2022-08-23T11:48:10;24.80;85.90
60909;DHT22;46780;48.128;-1.704;2022-08-23T11:50:47;24.90;85.50
60909;DHT22;46780;48.128;-1.704;2022-08-23T11:56:37;24.90;84.20
60909;DHT22;46780;48.128;-1.704;2022-08-23T11:59:25;24.90;84.10
60909;DHT22;46780;48.128;-1.704;2022-08-23T12:01:56;24.90;84.00
60909;DHT22;46780;48.128;-1.704;2022-08-23T12:04:31;24.80;83.80
60909;DHT22;46780;48.128;-1.704;2022-08-23T12:06:58;24.90;83.50
60909;DHT22;46780;48.128;-1.704;2022-08-23T12:12:34;24.90;82.90
60909;DHT22;46780;48.128;-1.704;2022-08-23T12:15:03;24.90;82.30
60909;DHT22;46780;48.128;-1.704;2022-08-23T12:18:08;24.90;81.70
60909;DHT22;46780;48.128;-1.704;2022-08-23T12:20:36;24.90;81.50
60909;DHT22;46780;48.128;-1.704;2022-08-23T12:23:15;24.90;81.20
60909;DHT22;46780;48.128;-1.704;2022-08-23T12:25:42;24.90;80.30
60909;DHT22;46780;48.128;-1.704;2022-08-23T12:28:35;24.90;79.40
60909;DHT22;46780;48.128;-1.704;2022-08-23T12:31:15;25.00;78.80
60909;DHT22;46780;48.128;-1.704;2022-08-23T12:33:52;24.90;78.20
60909;DHT22;46780;48.128;-1.704;2022-08-23T12:36:26;24.90;78.20
60909;DHT22;46780;48.128;-1.704;2022-08-23T12:39:00;24.90;78.50
60909;DHT22;46780;48.128;-1.704;2022-08-23T12:41:29;24.90;78.70
60909;DHT22;46780;48.128;-1.704;2022-08-23T12:44:00;24.90;79.00
60909;DHT22;46780;48.128;-1.704;2022-08-23T12:46:33;24.90;78.30
60909;DHT22;46780;48.128;-1.704;2022-08-23T12:49:00;25.00;78.20
60909;DHT22;46780;48.128;-1.704;2022-08-23T12:51:28;25.00;78.40
60909;DHT22;46780;48.128;-1.704;2022-08-23T12:53:55;25.00;78.10
60909;DHT22;46780;48.128;-1.704;2022-08-23T12:56:24;25.00;78.00
60909;DHT22;46780;48.128;-1.704;2022-08-23T12:58:53;25.00;77.90
60909;DHT22;46780;48.128;-1.704;2022-08-23T13:01:26;25.00;77.90
60909;DHT22;46780;48.128;-1.704;2022-08-23T13:03:57;25.00;77.70
60909;DHT22;46780;48.128;-1.704;2022-08-23T13:06:27;25.00;77.60
60909;DHT22;46780;48.128;-1.704;2022-08-23T13:08:59;25.00;77.00
60909;DHT22;46780;48.128;-1.704;2022-08-23T13:11:31;25.00;77.00
60909;DHT22;46780;48.128;-1.704;2022-08-23T13:13:58;25.00;77.00
60909;DHT22;46780;48.128;-1.704;2022-08-23T13:16:30;25.00;76.90
60909;DHT22;46780;48.128;-1.704;2022-08-23T13:19:14;25.00;76.90
60909;DHT22;46780;48.128;-1.704;2022-08-23T13:21:41;25.00;76.80
60909;DHT22;46780;48.128;-1.704;2022-08-23T13:24:32;24.90;77.10
60909;DHT22;46780;48.128;-1.704;2022-08-23T13:27:11;25.00;77.20
60909;DHT22;46780;48.128;-1.704;2022-08-23T13:29:54;24.90;77.60
60909;DHT22;46780;48.128;-1.704;2022-08-23T13:32:29;24.90;77.60
60909;DHT22;46780;48.128;-1.704;2022-08-23T13:37:58;24.90;78.10
60909;DHT22;46780;48.128;-1.704;2022-08-23T13:40:27;24.80;78.40
60909;DHT22;46780;48.128;-1.704;2022-08-23T13:43:00;24.80;78.60
60909;DHT22;46780;48.128;-1.704;2022-08-23T13:45:30;24.80;78.60
60909;DHT22;46780;48.128;-1.704;2022-08-23T13:48:06;24.70;78.60
60909;DHT22;46780;48.128;-1.704;2022-08-23T13:50:35;24.70;78.70
60909;DHT22;46780;48.128;-1.704;2022-08-23T13:53:03;24.70;78.50
60909;DHT22;46780;48.128;-1.704;2022-08-23T13:55:31;24.80;78.50
60909;DHT22;46780;48.128;-1.704;2022-08-23T13:57:59;24.80;78.50
60909;DHT22;46780;48.128;-1.704;2022-08-23T14:00:26;24.80;78.50
60909;DHT22;46780;48.128;-1.704;2022-08-23T14:02:52;24.80;78.50
60909;DHT22;46780;48.128;-1.704;2022-08-23T14:05:21;24.90;78.10
60909;DHT22;46780;48.128;-1.704;2022-08-23T14:07:48;24.90;77.80
60909;DHT22;46780;48.128;-1.704;2022-08-23T14:10:15;24.90;77.70
60909;DHT22;46780;48.128;-1.704;2022-08-23T14:12:42;24.90;77.80
60909;DHT22;46780;48.128;-1.704;2022-08-23T14:15:11;24.90;77.60
60909;DHT22;46780;48.128;-1.704;2022-08-23T14:17:40;24.80;77.90
60909;DHT22;46780;48.128;-1.704;2022-08-23T14:20:08;24.80;78.10
60909;DHT22;46780;48.128;-1.704;2022-08-23T14:22:36;24.80;78.10
60909;DHT22;46780;48.128;-1.704;2022-08-23T14:25:03;24.80;78.30
60909;DHT22;46780;48.128;-1.704;2022-08-23T14:27:30;24.80;78.30
60909;DHT22;46780;48.128;-1.704;2022-08-23T14:29:57;24.80;78.20
60909;DHT22;46780;48.128;-1.704;2022-08-23T14:32:23;24.70;78.20
60909;DHT22;46780;48.128;-1.704;2022-08-23T14:34:50;24.70;78.50
60909;DHT22;46780;48.128;-1.704;2022-08-23T14:37:16;24.70;78.70
60909;DHT22;46780;48.128;-1.704;2022-08-23T14:39:44;24.70;78.80
60909;DHT22;46780;48.128;-1.704;2022-08-23T14:42:11;24.70;79.00
60909;DHT22;46780;48.128;-1.704;2022-08-23T14:44:41;24.70;79.00
60909;DHT22;46780;48.128;-1.704;2022-08-23T14:47:07;24.70;78.80
60909;DHT22;46780;48.128;-1.704;2022-08-23T14:49:33;24.70;79.30
60909;DHT22;46780;48.128;-1.704;2022-08-23T14:52:00;24.70;79.30
60909;DHT22;46780;48.128;-1.704;2022-08-23T14:54:27;24.70;79.40
60909;DHT22;46780;48.128;-1.704;2022-08-23T14:56:55;24.80;79.60
60909;DHT22;46780;48.128;-1.704;2022-08-23T14:59:21;24.80;80.60
60909;DHT22;46780;48.128;-1.704;2022-08-23T15:01:49;24.80;80.70
60909;DHT22;46780;48.128;-1.704;2022-08-23T15:04:19;24.90;79.30
60909;DHT22;46780;48.128;-1.704;2022-08-23T15:06:47;24.90;79.20
60909;DHT22;46780;48.128;-1.704;2022-08-23T15:09:14;25.00;79.20
60909;DHT22;46780;48.128;-1.704;2022-08-23T15:11:40;25.00;78.70
60909;DHT22;46780;48.128;-1.704;2022-08-23T15:14:08;25.00;78.60
60909;DHT22;46780;48.128;-1.704;2022-08-23T15:16:35;25.10;78.70
60909;DHT22;46780;48.128;-1.704;2022-08-23T15:19:02;25.10;78.40
60909;DHT22;46780;48.128;-1.704;2022-08-23T15:21:28;25.10;78.50
60909;DHT22;46780;48.128;-1.704;2022-08-23T15:23:55;25.10;78.40
60909;DHT22;46780;48.128;-1.704;2022-08-23T15:26:24;25.10;78.50
60909;DHT22;46780;48.128;-1.704;2022-08-23T15:28:51;25.10;78.30
60909;DHT22;46780;48.128;-1.704;2022-08-23T15:31:19;25.10;78.20
60909;DHT22;46780;48.128;-1.704;2022-08-23T15:33:46;25.20;78.00
60909;DHT22;46780;48.128;-1.704;2022-08-23T15:36:13;25.20;77.80
60909;DHT22;46780;48.128;-1.704;2022-08-23T15:38:42;25.20;77.60
60909;DHT22;46780;48.128;-1.704;2022-08-23T15:41:09;25.20;77.70